Time;durP1;ratioP1;P1;durP2;ratioP2;P2;SDS_P1;SDS_P2;PMS_P1;PMS_P2;Temp;Humidity;BMP_temperature;BMP_pressure;BME280_temperature;BME280_humidity;BME280_pressure;Samples;Min_cycle;Max_cycle;Signal;HPM_P1;HPM_P2
2022/02/07 00:01:40;;;;;;;0.30;0.30;;;6.50;90.70;;;;;;5092725;28;20200;-86
2022/02/07 00:04:08;;;;;;;0.40;0.40;;;6.50;90.40;;;;;;5083809;28;20233;-86
2022/02/07 00:06:35;;;;;;;0.50;0.50;;;6.50;90.30;;;;;;5091764;28;20200;-87
2022/02/07 00:09:04;;;;;;;0.43;0.43;;;6.50;90.30;;;;;;5084295;28;20231;-86
2022/02/07 00:11:31;;;;;;;0.40;0.40;;;6.60;90.50;;;;;;5089474;28;20199;-87
2022/02/07 00:13:58;;;;;;;0.87;0.70;;;6.50;89.90;;;;;;5090697;28;20579;-86
2022/02/07 00:16:25;;;;;;;0.40;0.40;;;5.40;90.40;;;;;;5102368;28;20271;-87
2022/02/07 00:18:52;;;;;;;0.30;0.30;;;4.40;93.00;;;;;;5097612;28;20249;-86
2022/02/07 00:21:19;;;;;;;0.50;0.50;;;3.50;96.60;;;;;;5078379;28;20196;-86
2022/02/07 00:23:46;;;;;;;0.30;0.30;;;3.20;98.80;;;;;;5091464;28;20224;-87
2022/02/07 00:26:15;;;;;;;0.40;0.40;;;3.10;99.20;;;;;;5088387;28;20205;-86
2022/02/07 00:28:42;;;;;;;0.50;0.50;;;3.00;99.80;;;;;;5095423;28;20231;-85
2022/02/07 00:31:09;;;;;;;0.60;0.40;;;2.90;99.80;;;;;;5096988;28;20266;-86
2022/02/07 00:33:36;;;;;;;0.30;0.30;;;2.70;99.80;;;;;;5100889;28;20236;-86
2022/02/07 00:36:04;;;;;;;0.63;0.37;;;2.60;99.90;;;;;;5089094;28;20293;-87
2022/02/07 00:38:31;;;;;;;0.40;0.40;;;2.50;99.90;;;;;;5083705;28;20292;-87
2022/02/07 00:41:07;;;;;;;0.53;0.53;;;2.50;99.90;;;;;;5102750;28;20287;-86
2022/02/07 00:43:40;;;;;;;0.50;0.50;;;2.40;99.90;;;;;;5067206;28;20292;-86
2022/02/07 00:46:10;;;;;;;0.30;0.30;;;2.40;99.90;;;;;;5099075;28;20215;-87
2022/02/07 00:48:38;;;;;;;0.30;0.30;;;2.40;99.90;;;;;;5100440;28;20231;-87
2022/02/07 00:51:06;;;;;;;1.27;0.40;;;2.40;99.90;;;;;;5101837;28;20636;-86
2022/02/07 00:53:33;;;;;;;0.40;0.40;;;2.40;99.90;;;;;;5101272;28;20243;-86
2022/02/07 00:56:01;;;;;;;0.40;0.40;;;2.30;99.90;;;;;;5084323;28;20643;-86
2022/02/07 00:58:28;;;;;;;0.47;0.47;;;2.30;99.90;;;;;;5098261;28;20241;-87
2022/02/07 01:00:57;;;;;;;0.40;0.40;;;2.20;99.90;;;;;;5100303;28;20292;-85
2022/02/07 01:03:25;;;;;;;1.20;0.60;;;2.20;99.90;;;;;;5089395;28;20315;-85
2022/02/07 01:05:51;;;;;;;0.60;0.60;;;2.20;99.90;;;;;;5095244;28;20258;-88
2022/02/07 01:08:24;;;;;;;0.60;0.40;;;2.20;99.90;;;;;;5077735;28;20268;-86
2022/02/07 01:10:58;;;;;;;0.37;0.37;;;2.10;99.90;;;;;;5095113;28;20587;-85
2022/02/07 01:13:40;;;;;;;0.40;0.40;;;2.10;99.90;;;;;;5072124;28;20228;-85
2022/02/07 01:16:17;;;;;;;1.23;0.50;;;2.10;99.90;;;;;;5071129;28;20212;-85
2022/02/07 01:52:13;;;;;;;0.40;0.40;;;1.70;99.90;;;;;;5096722;28;20337;-85
2022/02/07 01:54:44;;;;;;;0.40;0.40;;;1.60;99.90;;;;;;5085037;28;20294;-85
2022/02/07 01:57:13;;;;;;;0.30;0.30;;;1.60;99.90;;;;;;5091010;28;20192;-85
2022/02/07 01:59:42;;;;;;;0.30;0.30;;;1.60;99.90;;;;;;5089841;28;20311;-85
2022/02/07 02:02:09;;;;;;;0.33;0.33;;;1.70;99.90;;;;;;5096558;28;20199;-85
2022/02/07 02:04:38;;;;;;;0.40;0.40;;;1.70;99.90;;;;;;5071282;28;20236;-87
2022/02/07 02:07:06;;;;;;;0.30;0.30;;;1.70;99.90;;;;;;5096876;28;20847;-85
2022/02/07 02:09:34;;;;;;;0.40;0.40;;;1.70;99.90;;;;;;5093327;28;20233;-85
2022/02/07 02:12:03;;;;;;;0.40;0.40;;;1.80;99.90;;;;;;5073523;28;20199;-85
2022/02/07 02:14:59;;;;;;;0.30;0.30;;;1.80;99.90;;;;;;5083361;28;20248;-85
2022/02/07 02:18:05;;;;;;;0.40;0.40;;;1.90;99.90;;;;;;5084472;28;20206;-85
2022/02/07 02:34:59;;;;;;;0.40;0.40;;;1.80;99.90;;;;;;5087805;28;20223;-85
2022/02/07 02:37:18;;;;;;;0.87;0.50;;;1.80;99.90;;;;;;5091752;28;20246;-85
2022/02/07 02:45:32;;;;;;;0.43;0.43;;;1.80;99.90;;;;;;5090809;28;20690;-86
2022/02/07 02:48:03;;;;;;;0.43;0.43;;;1.80;99.90;;;;;;5093729;28;20666;-85
2022/02/07 02:50:32;;;;;;;0.37;0.37;;;1.80;99.90;;;;;;5092095;28;20211;-86
2022/02/07 02:53:04;;;;;;;1.27;0.50;;;1.80;99.90;;;;;;5083773;28;20208;-85
2022/02/07 02:55:33;;;;;;;0.40;0.40;;;1.80;99.90;;;;;;5085175;28;20284;-85
2022/02/07 02:58:00;;;;;;;0.60;0.60;;;1.80;99.90;;;;;;5083727;28;20241;-87
2022/02/07 03:00:31;;;;;;;0.40;0.40;;;1.70;99.90;;;;;;5091646;28;20646;-85
2022/02/07 03:02:58;;;;;;;0.60;0.60;;;1.70;99.90;;;;;;5099612;28;20271;-84
2022/02/07 03:05:25;;;;;;;0.40;0.40;;;1.70;99.90;;;;;;5099652;28;20196;-85
2022/02/07 03:07:53;;;;;;;0.60;0.60;;;1.70;99.90;;;;;;5077593;28;20623;-85
2022/02/07 03:10:26;;;;;;;0.50;0.50;;;1.70;99.90;;;;;;5083770;28;20241;-85
2022/02/07 03:13:08;;;;;;;0.70;0.70;;;1.70;99.90;;;;;;5095818;28;20228;-85
2022/02/07 03:18:20;;;;;;;0.50;0.50;;;1.70;99.90;;;;;;5085240;28;20330;-85
2022/02/07 03:20:46;;;;;;;0.57;0.43;;;1.70;99.90;;;;;;5098408;28;20218;-86
2022/02/07 03:23:13;;;;;;;0.47;0.47;;;1.70;99.90;;;;;;5089698;28;20315;-86
2022/02/07 03:25:41;;;;;;;0.77;0.60;;;1.80;99.90;;;;;;5091207;28;20229;-85
2022/02/07 03:28:09;;;;;;;0.50;0.50;;;1.80;99.90;;;;;;5092896;28;20254;-85
2022/02/07 03:30:38;;;;;;;0.67;0.50;;;1.70;99.90;;;;;;5091626;28;20279;-85
2022/02/07 03:33:06;;;;;;;0.30;0.30;;;1.70;99.90;;;;;;5093193;28;20224;-85
2022/02/07 03:35:33;;;;;;;0.47;0.47;;;1.70;99.90;;;;;;5096150;28;20565;-85
2022/02/07 03:38:00;;;;;;;0.40;0.40;;;1.80;99.90;;;;;;5074110;28;20319;-86
2022/02/07 03:40:27;;;;;;;0.47;0.47;;;1.80;99.90;;;;;;5090861;28;20585;-87
2022/02/07 03:42:54;;;;;;;0.83;0.80;;;1.80;99.90;;;;;;5098949;28;20228;-85
2022/02/07 03:45:26;;;;;;;0.40;0.40;;;1.90;99.90;;;;;;5093664;28;20200;-85
2022/02/07 03:47:54;;;;;;;0.70;0.70;;;1.90;99.90;;;;;;5088368;28;20279;-84
2022/02/07 03:50:21;;;;;;;0.53;0.50;;;1.90;99.90;;;;;;5100351;28;20228;-85
2022/02/07 03:52:50;;;;;;;0.60;0.60;;;1.90;99.90;;;;;;5087384;28;20266;-86
2022/02/07 03:55:17;;;;;;;0.40;0.40;;;1.90;99.90;;;;;;5085885;28;20197;-85
2022/02/07 03:57:44;;;;;;;0.60;0.60;;;1.90;99.90;;;;;;5100718;28;20208;-86
2022/02/07 04:00:13;;;;;;;0.70;0.60;;;2.00;99.90;;;;;;5103457;28;20197;-85
2022/02/07 04:02:45;;;;;;;1.10;0.60;;;2.00;99.90;;;;;;5101613;28;20210;-85
2022/02/07 04:05:37;;;;;;;0.43;0.43;;;2.00;99.90;;;;;;5091030;28;20228;-84
2022/02/07 04:08:05;;;;;;;0.60;0.60;;;2.00;99.90;;;;;;5080099;28;20581;-85
2022/02/07 04:10:38;;;;;;;1.27;0.60;;;1.90;99.90;;;;;;5099792;28;20204;-85
2022/02/07 04:13:07;;;;;;;0.50;0.50;;;1.90;99.90;;;;;;5097112;28;20232;-87
2022/02/07 04:15:34;;;;;;;0.60;0.60;;;1.90;99.90;;;;;;5101764;28;20192;-85
2022/02/07 04:18:08;;;;;;;2.77;0.63;;;1.90;99.90;;;;;;5085053;28;20355;-85
2022/02/07 04:20:36;;;;;;;1.50;0.57;;;1.90;99.90;;;;;;5095001;28;20210;-85
2022/02/07 04:23:04;;;;;;;0.73;0.70;;;1.90;99.90;;;;;;5097261;28;20228;-87
2022/02/07 04:25:31;;;;;;;1.17;0.77;;;1.90;99.90;;;;;;5076369;28;20196;-85
2022/02/07 04:27:58;;;;;;;0.80;0.80;;;2.00;99.90;;;;;;5087645;28;20283;-85
2022/02/07 04:30:25;;;;;;;0.80;0.80;;;2.00;99.90;;;;;;5098659;28;20207;-85
2022/02/07 04:32:52;;;;;;;0.80;0.80;;;2.00;99.60;;;;;;5083859;28;20264;-86
2022/02/07 04:35:20;;;;;;;0.87;0.70;;;1.90;99.90;;;;;;5097633;28;20220;-88
2022/02/07 04:37:47;;;;;;;2.10;0.70;;;2.00;99.90;;;;;;5095763;28;20640;-87
2022/02/07 04:40:14;;;;;;;1.30;0.73;;;2.10;99.90;;;;;;5097165;28;20220;-85
2022/02/07 04:42:41;;;;;;;0.70;0.70;;;2.10;99.90;;;;;;5070481;28;20197;-85
2022/02/07 04:45:25;;;;;;;1.63;0.70;;;2.10;99.90;;;;;;5097317;28;20671;-85
2022/02/07 04:48:19;;;;;;;1.50;0.90;;;2.00;99.90;;;;;;5086566;28;20196;-85
2022/02/07 04:51:04;;;;;;;1.93;0.80;;;2.00;99.90;;;;;;5090854;28;20231;-85
2022/02/07 04:53:50;;;;;;;2.13;0.80;;;2.00;99.80;;;;;;5100214;28;20258;-85
2022/02/07 04:56:59;;;;;;;1.70;1.00;;;2.00;99.60;;;;;;5090363;28;20651;-85
2022/02/07 04:59:08;;;;;;;1.67;0.70;;;2.00;99.60;;;;;;5085715;28;20761;-85
2022/02/07 05:01:45;;;;;;;0.93;0.80;;;1.90;99.60;;;;;;5096384;28;20196;-90
2022/02/07 05:04:23;;;;;;;3.10;1.00;;;1.80;99.30;;;;;;5097228;28;20232;-85
2022/02/07 05:15:16;;;;;;;2.47;1.10;;;1.70;99.00;;;;;;5086878;28;20224;-86
2022/02/07 05:17:43;;;;;;;4.50;1.47;;;1.70;99.00;;;;;;5088630;28;20220;-85
2022/02/07 05:20:11;;;;;;;2.70;1.07;;;1.70;99.30;;;;;;5097522;28;20639;-87
2022/02/07 05:22:39;;;;;;;4.67;1.20;;;1.80;99.40;;;;;;5088396;28;20226;-85
2022/02/07 05:25:08;;;;;;;1.90;1.00;;;1.80;98.80;;;;;;5082657;28;20239;-85
2022/02/07 05:27:35;;;;;;;1.57;1.00;;;1.90;98.70;;;;;;5099926;28;20197;-87
2022/02/07 05:30:02;;;;;;;6.50;1.17;;;2.10;98.40;;;;;;5088650;28;20580;-85
2022/02/07 05:32:30;;;;;;;1.40;1.00;;;2.10;98.30;;;;;;5092273;28;20200;-85
2022/02/07 05:34:57;;;;;;;3.07;1.20;;;2.10;98.00;;;;;;5096268;28;20220;-88
2022/02/07 05:37:23;;;;;;;2.60;1.10;;;2.10;97.30;;;;;;5101219;28;20268;-85
2022/02/07 05:39:57;;;;;;;2.77;0.90;;;2.10;96.90;;;;;;5085433;28;20240;-86
2022/02/07 05:42:24;;;;;;;3.00;1.00;;;2.10;96.70;;;;;;5086484;28;20202;-86
2022/02/07 05:44:51;;;;;;;5.20;1.03;;;2.20;96.90;;;;;;5101260;28;20251;-86
2022/02/07 05:47:18;;;;;;;2.60;1.13;;;2.20;96.80;;;;;;5095149;28;20264;-84
2022/02/07 05:49:45;;;;;;;2.77;1.07;;;2.20;96.70;;;;;;5071214;28;21325;-86
2022/02/07 05:52:13;;;;;;;1.87;0.90;;;2.30;96.70;;;;;;5094560;28;20196;-85
2022/02/07 05:55:07;;;;;;;1.53;0.87;;;2.20;96.70;;;;;;5089114;28;20225;-85
2022/02/07 05:57:34;;;;;;;4.33;1.13;;;2.20;96.80;;;;;;5094906;28;20192;-85
2022/02/07 06:00:01;;;;;;;1.87;1.10;;;2.20;97.20;;;;;;5091575;28;20647;-87
2022/02/07 06:02:36;;;;;;;3.73;1.07;;;2.10;97.10;;;;;;5092773;28;20284;-85
2022/02/07 06:05:04;;;;;;;3.00;1.00;;;2.10;97.30;;;;;;5094072;28;20224;-84
2022/02/07 06:07:31;;;;;;;1.83;1.00;;;2.10;97.10;;;;;;5092299;28;20211;-86
2022/02/07 06:09:58;;;;;;;2.97;1.03;;;2.10;96.10;;;;;;5096980;28;20592;-87
2022/02/07 06:12:26;;;;;;;3.50;0.90;;;2.10;95.80;;;;;;5094825;28;20287;-86
2022/02/07 06:14:54;;;;;;;3.80;1.10;;;2.10;95.50;;;;;;5071187;28;20224;-86
2022/02/07 06:17:22;;;;;;;2.27;0.80;;;2.00;95.20;;;;;;5093054;28;20612;-86
2022/02/07 06:19:53;;;;;;;2.87;1.20;;;2.00;94.80;;;;;;5075851;28;20230;-86
2022/02/07 06:22:20;;;;;;;1.20;0.90;;;2.00;94.90;;;;;;5094425;28;20200;-85
2022/02/07 06:24:47;;;;;;;1.00;0.93;;;2.00;94.80;;;;;;5092152;28;20299;-85
2022/02/07 06:27:14;;;;;;;1.57;0.90;;;2.00;94.50;;;;;;5094936;28;20658;-86
2022/02/07 06:29:43;;;;;;;1.83;0.83;;;2.10;94.50;;;;;;5089282;28;20246;-85
2022/02/07 06:32:16;;;;;;;1.67;1.00;;;2.10;94.50;;;;;;5098394;28;20239;-86
2022/02/07 06:34:43;;;;;;;2.87;0.90;;;2.00;94.90;;;;;;5097517;28;20238;-85
2022/02/07 06:37:09;;;;;;;1.80;0.90;;;2.00;95.20;;;;;;5094915;28;20214;-87
2022/02/07 06:39:36;;;;;;;0.80;0.80;;;2.00;95.40;;;;;;5097246;28;20304;-85
2022/02/07 06:42:04;;;;;;;1.60;0.90;;;2.00;95.60;;;;;;5090778;28;20273;-84
2022/02/07 06:44:30;;;;;;;1.60;0.90;;;1.90;96.20;;;;;;5094922;28;20330;-86
2022/02/07 06:46:59;;;;;;;1.07;0.70;;;1.80;96.90;;;;;;5085849;28;20200;-87
2022/02/07 06:49:25;;;;;;;2.50;1.10;;;1.80;97.30;;;;;;5082813;28;20270;-85
2022/02/07 06:51:53;;;;;;;1.10;1.00;;;1.70;97.70;;;;;;5077231;28;20209;-86
2022/02/07 06:54:20;;;;;;;3.33;1.20;;;1.70;98.10;;;;;;5063089;28;20248;-85
2022/02/07 06:56:48;;;;;;;1.37;1.10;;;1.70;97.00;;;;;;5092475;28;20207;-85
2022/02/07 06:59:18;;;;;;;2.33;1.10;;;1.70;96.80;;;;;;5085632;28;20290;-86
2022/02/07 07:01:46;;;;;;;2.17;1.00;;;1.70;96.80;;;;;;5081963;28;20216;-86
2022/02/07 07:04:14;;;;;;;3.87;1.20;;;1.70;96.40;;;;;;5081073;28;20253;-87
2022/02/07 07:06:41;;;;;;;1.70;1.17;;;1.70;96.20;;;;;;5079986;28;20203;-86
2022/02/07 07:09:12;;;;;;;3.13;1.30;;;1.80;95.60;;;;;;5099249;28;20230;-87
2022/02/07 07:11:41;;;;;;;2.87;1.10;;;1.80;95.80;;;;;;5094410;28;20215;-86
2022/02/07 07:14:16;;;;;;;2.17;1.00;;;1.90;96.20;;;;;;5096516;28;20303;-86
2022/02/07 07:16:51;;;;;;;3.13;1.00;;;1.90;96.00;;;;;;5076799;28;20196;-85
2022/02/07 07:19:21;;;;;;;3.03;1.20;;;1.90;95.90;;;;;;5081932;28;20826;-85
2022/02/07 07:21:55;;;;;;;4.00;1.30;;;2.00;96.00;;;;;;5091244;28;20225;-88
2022/02/07 07:24:23;;;;;;;2.90;1.00;;;2.00;95.80;;;;;;5081585;28;20232;-88
2022/02/07 07:26:51;;;;;;;2.17;1.10;;;2.10;95.90;;;;;;5052411;28;20197;-88
2022/02/07 07:29:22;;;;;;;1.63;1.10;;;2.10;95.80;;;;;;5094343;28;20298;-88
2022/02/07 07:31:52;;;;;;;2.60;1.40;;;2.10;95.80;;;;;;5054605;28;20289;-88
2022/02/07 07:34:22;;;;;;;1.93;1.20;;;2.10;95.60;;;;;;5094908;28;20239;-88
2022/02/07 07:36:51;;;;;;;3.73;1.30;;;2.10;95.10;;;;;;5071191;28;20630;-87
2022/02/07 07:39:19;;;;;;;2.87;1.03;;;2.10;95.00;;;;;;5079533;28;20638;-87
2022/02/07 07:41:48;;;;;;;4.37;1.30;;;2.20;95.10;;;;;;5089205;28;20312;-87
2022/02/07 07:44:19;;;;;;;2.73;1.30;;;2.20;95.10;;;;;;5099615;28;20233;-88
2022/02/07 07:46:52;;;;;;;7.00;1.23;;;2.30;94.50;;;;;;5101225;28;20237;-88
2022/02/07 07:49:31;;;;;;;3.10;1.27;;;2.30;94.50;;;;;;5086345;28;20248;-87
2022/02/07 07:52:03;;;;;;;3.33;1.30;;;2.30;94.40;;;;;;5107734;28;20201;-88
2022/02/07 07:54:48;;;;;;;2.23;1.33;;;2.30;93.70;;;;;;5105420;28;20239;-88
2022/02/07 08:06:53;;;;;;;4.83;1.27;;;2.40;92.60;;;;;;5043110;28;20225;-88
2022/02/07 08:12:49;;;;;;;3.67;1.57;;;2.30;92.10;;;;;;5016560;28;20215;-88
2022/02/07 08:18:15;;;;;;;4.03;1.53;;;2.40;91.70;;;;;;5072400;28;20688;-86
2022/02/07 08:20:43;;;;;;;7.03;1.50;;;2.40;91.70;;;;;;5086383;28;20200;-89
2022/02/07 08:23:12;;;;;;;3.97;1.47;;;2.60;91.20;;;;;;5089384;28;20228;-87
2022/02/07 08:25:40;;;;;;;6.20;1.50;;;2.60;91.10;;;;;;5110151;28;20250;-88
2022/02/07 08:28:09;;;;;;;3.27;1.30;;;2.60;90.10;;;;;;5110115;28;20228;-89
2022/02/07 08:33:42;;;;;;;4.20;1.40;;;2.70;90.30;;;;;;5079512;28;20260;-87
2022/02/07 08:36:10;;;;;;;5.00;1.40;;;2.70;90.50;;;;;;5094115;28;20276;-87
2022/02/07 08:41:24;;;;;;;4.87;1.53;;;2.50;91.60;;;;;;5098431;28;20204;-88
2022/02/07 08:47:25;;;;;;;3.50;1.40;;;2.40;91.50;;;;;;5106809;28;20198;-87
2022/02/07 08:49:55;;;;;;;2.50;1.50;;;2.50;92.50;;;;;;5078055;28;20227;-86
2022/02/07 08:52:22;;;;;;;3.40;1.40;;;2.50;92.20;;;;;;5087125;28;20201;-84
2022/02/07 08:54:52;;;;;;;8.03;1.60;;;2.50;92.60;;;;;;5088930;28;20265;-86
2022/02/07 08:57:26;;;;;;;4.97;1.80;;;2.60;92.20;;;;;;5104066;28;20224;-85
2022/02/07 09:00:01;;;;;;;2.43;1.27;;;2.60;91.70;;;;;;5083585;28;20244;-85
2022/02/07 09:02:54;;;;;;;3.43;1.20;;;2.60;91.60;;;;;;5098409;28;20234;-85
2022/02/07 09:06:07;;;;;;;4.50;1.90;;;2.60;91.10;;;;;;5091674;28;20268;-85
2022/02/07 09:08:51;;;;;;;4.10;1.43;;;2.70;91.30;;;;;;5108110;28;20235;-87
2022/02/07 09:11:20;;;;;;;5.30;1.60;;;2.70;91.30;;;;;;5099461;28;20197;-85
2022/02/07 09:18:04;;;;;;;3.80;1.37;;;2.60;91.70;;;;;;5092860;28;20225;-85
2022/02/07 09:21:22;;;;;;;8.33;1.50;;;2.70;91.90;;;;;;5095020;28;20212;-86
2022/02/07 09:24:02;;;;;;;3.10;1.60;;;3.00;91.00;;;;;;5081302;28;20232;-87
2022/02/07 09:26:31;;;;;;;3.70;1.50;;;3.10;90.90;;;;;;5090483;28;20260;-85
2022/02/07 09:29:34;;;;;;;6.00;1.87;;;3.00;90.60;;;;;;5094810;28;20327;-87
2022/02/07 09:32:05;;;;;;;3.57;1.80;;;3.10;90.20;;;;;;5103469;28;20291;-86
2022/02/07 09:34:34;;;;;;;5.27;1.40;;;3.30;90.10;;;;;;5093712;28;20225;-85
2022/02/07 09:37:01;;;;;;;5.67;1.80;;;3.30;89.50;;;;;;5107760;28;20207;-86
2022/02/07 09:39:31;;;;;;;2.77;1.50;;;3.30;88.20;;;;;;5091069;28;20220;-86
2022/02/07 09:42:03;;;;;;;7.27;1.60;;;3.60;87.20;;;;;;5104855;28;20596;-85
2022/02/07 09:44:41;;;;;;;6.90;1.57;;;3.90;84.80;;;;;;5094985;28;20687;-85
2022/02/07 09:47:09;;;;;;;5.83;1.53;;;4.10;85.30;;;;;;5100466;28;20221;-85
2022/02/07 09:49:59;;;;;;;3.97;1.53;;;4.20;84.00;;;;;;5096464;28;20229;-83
2022/02/07 09:52:26;;;;;;;6.90;1.80;;;4.20;84.10;;;;;;5089713;28;20288;-85
2022/02/07 09:54:53;;;;;;;6.80;1.57;;;4.00;83.60;;;;;;5107507;28;20283;-86
2022/02/07 09:57:23;;;;;;;7.47;1.50;;;3.70;83.90;;;;;;5093968;28;20210;-86
2022/02/07 09:59:52;;;;;;;4.97;1.50;;;3.40;85.20;;;;;;5105660;28;20239;-88
2022/02/07 10:02:28;;;;;;;7.03;1.60;;;3.40;88.00;;;;;;5083166;28;20226;-87
2022/02/07 10:04:58;;;;;;;4.57;1.53;;;3.40;88.10;;;;;;5110831;28;20228;-85
2022/02/07 10:07:35;;;;;;;4.77;1.80;;;3.30;87.90;;;;;;5109649;28;20204;-85
2022/02/07 10:10:37;;;;;;;6.77;1.60;;;3.40;88.80;;;;;;5064061;28;20263;-86
2022/02/07 10:15:54;;;;;;;4.57;1.50;;;3.50;88.00;;;;;;5096473;28;20204;-86
2022/02/07 10:18:36;;;;;;;5.20;1.40;;;3.40;88.40;;;;;;5109546;28;20230;-86
2022/02/07 11:28:14;;;;;;;8.57;1.67;;;3.40;88.90;;;;;;5020755;28;20230;-84
2022/02/07 11:41:05;;;;;;;3.53;1.20;;;3.70;88.10;;;;;;5078337;28;20186;-84
2022/02/07 11:43:33;;;;;;;6.90;1.60;;;3.80;88.20;;;;;;5060442;28;20202;-83
2022/02/07 11:46:03;;;;;;;5.13;1.50;;;3.70;88.20;;;;;;5060216;28;20217;-83
2022/02/07 11:55:15;;;;;;;3.27;1.50;;;3.40;87.30;;;;;;5102038;28;20223;-83
2022/02/07 11:57:52;;;;;;;3.23;1.30;;;3.40;88.00;;;;;;5100811;28;20192;-84
2022/02/07 12:00:31;;;;;;;5.33;1.57;;;3.50;88.00;;;;;;5098269;28;20287;-84
2022/02/07 12:03:02;;;;;;;5.60;1.73;;;3.70;88.20;;;;;;5086488;28;20195;-84
2022/02/07 12:05:32;;;;;;;6.90;1.63;;;3.60;88.10;;;;;;5088944;28;20276;-86
2022/02/07 12:08:01;;;;;;;4.97;1.50;;;3.60;88.10;;;;;;5070745;28;20229;-86
2022/02/07 12:10:37;;;;;;;7.37;1.70;;;3.70;88.20;;;;;;5082381;28;20203;-84
2022/02/07 12:13:30;;;;;;;5.13;2.00;;;3.90;88.30;;;;;;5096144;28;20188;-86
2022/02/07 12:15:59;;;;;;;6.57;1.43;;;3.90;87.40;;;;;;5086336;28;20196;-84
2022/02/07 12:18:27;;;;;;;10.43;1.80;;;4.00;85.40;;;;;;5095161;28;20228;-84
2022/02/07 12:20:56;;;;;;;5.97;2.03;;;4.10;86.60;;;;;;5099894;28;20336;-85
2022/02/07 12:23:30;;;;;;;5.10;1.50;;;4.00;83.70;;;;;;5098050;28;20228;-85
2022/02/07 12:26:04;;;;;;;9.27;1.80;;;4.10;84.40;;;;;;5099563;28;20273;-86
2022/02/07 12:28:41;;;;;;;6.20;1.77;;;4.10;84.80;;;;;;5090828;28;20232;-83
2022/02/07 12:31:17;;;;;;;6.70;1.90;;;4.10;83.60;;;;;;5098381;28;20192;-86
2022/02/07 12:33:47;;;;;;;6.33;1.70;;;4.20;83.00;;;;;;5092059;28;20216;-85
2022/02/07 12:39:40;;;;;;;6.70;1.70;;;3.70;86.60;;;;;;5084716;28;20801;-85
2022/02/07 12:42:09;;;;;;;5.37;1.37;;;3.70;86.20;;;;;;5091793;28;20194;-84
2022/02/07 12:44:40;;;;;;;5.77;1.50;;;3.80;86.40;;;;;;5085536;28;20256;-83
2022/02/07 12:47:17;;;;;;;5.60;1.80;;;3.80;88.20;;;;;;5093297;28;20272;-84
2022/02/07 12:49:47;;;;;;;6.73;1.50;;;4.00;86.30;;;;;;5094175;28;20685;-83
2022/02/07 12:52:14;;;;;;;4.03;1.77;;;3.80;86.60;;;;;;5097440;28;20220;-83
2022/02/07 12:54:42;;;;;;;11.93;2.67;;;3.80;86.80;;;;;;5088191;28;20216;-85
2022/02/07 12:57:24;;;;;;;4.87;1.57;;;3.90;86.70;;;;;;5091119;28;20276;-84
2022/02/07 12:59:52;;;;;;;3.50;1.43;;;3.80;85.50;;;;;;5095581;28;20228;-83
2022/02/07 13:02:27;;;;;;;5.20;1.50;;;3.60;86.20;;;;;;5064471;28;20205;-83
2022/02/07 13:04:54;;;;;;;5.57;1.40;;;3.60;87.00;;;;;;5094424;28;20298;-84
2022/02/07 13:07:24;;;;;;;6.80;1.87;;;3.60;87.50;;;;;;5093277;28;20328;-83
2022/02/07 13:09:53;;;;;;;4.33;1.47;;;3.60;88.10;;;;;;5096938;28;20231;-83
2022/02/07 13:12:35;;;;;;;13.20;2.30;;;3.50;88.00;;;;;;5089425;28;20227;-84
2022/02/07 13:15:13;;;;;;;4.43;1.60;;;3.50;88.00;;;;;;5088685;28;20224;-83
2022/02/07 13:17:40;;;;;;;4.87;1.47;;;3.50;88.00;;;;;;5083456;28;20242;-83
2022/02/07 13:20:10;;;;;;;6.57;1.97;;;3.40;88.00;;;;;;5097237;28;20311;-83
2022/02/07 13:23:14;;;;;;;8.80;1.73;;;3.50;87.60;;;;;;5088913;28;20188;-83
2022/02/07 13:25:43;;;;;;;9.43;1.80;;;3.50;88.00;;;;;;5107316;28;20224;-83
2022/02/07 13:28:20;;;;;;;8.80;1.63;;;3.50;88.00;;;;;;5106982;28;20221;-83
2022/02/07 13:30:50;;;;;;;5.53;2.37;;;3.50;88.00;;;;;;5102782;28;20276;-83
2022/02/07 13:33:17;;;;;;;7.20;2.00;;;3.50;89.20;;;;;;5093886;28;20255;-83
2022/02/07 13:35:59;;;;;;;6.50;1.80;;;3.50;88.00;;;;;;5102909;28;20271;-83
2022/02/07 13:38:27;;;;;;;7.70;1.90;;;3.50;88.00;;;;;;5094937;28;20235;-83
2022/02/07 13:41:21;;;;;;;8.27;1.83;;;3.50;88.00;;;;;;5107069;28;20212;-83
2022/02/07 13:43:48;;;;;;;7.27;1.80;;;3.50;88.00;;;;;;5097297;28;20691;-83
2022/02/07 13:46:19;;;;;;;5.63;2.03;;;3.60;88.10;;;;;;5099385;28;20287;-85
2022/02/07 13:48:46;;;;;;;5.73;1.80;;;3.60;88.10;;;;;;5096548;28;20235;-83
2022/02/07 13:51:22;;;;;;;9.07;2.13;;;3.70;88.20;;;;;;5090227;28;20209;-86
2022/02/07 13:53:51;;;;;;;9.37;2.10;;;3.60;88.10;;;;;;5094130;28;20276;-84
2022/02/07 13:56:28;;;;;;;11.80;2.83;;;3.60;88.10;;;;;;5100639;28;20199;-86
2022/02/07 13:58:55;;;;;;;4.47;1.97;;;3.60;88.10;;;;;;5080608;28;20247;-87
2022/02/07 14:01:34;;;;;;;6.03;1.83;;;3.50;88.00;;;;;;5107853;28;20236;-84
2022/02/07 14:04:03;;;;;;;5.47;1.93;;;3.60;88.10;;;;;;5073703;28;20494;-88
2022/02/07 14:06:31;;;;;;;5.40;2.03;;;3.60;88.10;;;;;;5105548;28;20223;-87
2022/02/07 14:09:11;;;;;;;3.70;1.97;;;3.60;88.10;;;;;;5090117;28;20222;-82
2022/02/07 14:11:39;;;;;;;3.93;1.80;;;3.70;88.20;;;;;;5091712;28;20276;-84
2022/02/07 14:14:07;;;;;;;7.00;1.87;;;3.60;85.80;;;;;;5091606;28;20286;-82
2022/02/07 14:16:36;;;;;;;9.37;2.00;;;3.70;87.70;;;;;;5094103;28;20201;-82
2022/02/07 14:19:03;;;;;;;8.03;2.10;;;3.70;87.10;;;;;;5096089;28;20219;-83
2022/02/07 14:21:31;;;;;;;8.83;2.00;;;3.70;87.40;;;;;;5093936;28;20204;-83
2022/02/07 14:24:10;;;;;;;8.90;2.13;;;3.60;87.10;;;;;;5090137;28;20217;-82
2022/02/07 14:26:37;;;;;;;6.90;2.00;;;3.70;86.70;;;;;;5095558;28;20618;-83
2022/02/07 14:29:06;;;;;;;5.67;1.80;;;3.70;85.80;;;;;;5074861;28;20228;-82
2022/02/07 14:31:33;;;;;;;4.97;1.87;;;3.70;86.60;;;;;;5092219;28;20197;-84
2022/02/07 14:34:02;;;;;;;5.60;1.93;;;3.60;85.60;;;;;;5084932;28;20312;-82
2022/02/07 14:36:32;;;;;;;7.33;1.90;;;3.60;86.60;;;;;;5093269;28;20201;-82
2022/02/07 14:38:59;;;;;;;4.60;1.67;;;3.60;87.10;;;;;;5091753;28;20224;-83
2022/02/07 14:41:26;;;;;;;9.97;2.20;;;3.60;87.20;;;;;;5089666;28;20209;-84
2022/02/07 14:43:59;;;;;;;7.97;1.90;;;3.60;88.10;;;;;;5088944;28;20225;-83
2022/02/07 14:46:33;;;;;;;5.47;1.80;;;3.50;86.40;;;;;;5093267;28;20240;-83
2022/02/07 14:49:01;;;;;;;6.60;1.70;;;3.50;88.00;;;;;;5091025;28;20229;-83
2022/02/07 14:51:28;;;;;;;4.37;1.90;;;3.50;88.00;;;;;;5092230;28;20214;-83
2022/02/07 14:53:57;;;;;;;6.13;2.13;;;3.60;87.20;;;;;;5088392;28;20307;-83
2022/02/07 14:56:25;;;;;;;6.40;2.17;;;3.60;87.30;;;;;;5089763;28;20254;-84
2022/02/07 14:58:52;;;;;;;5.97;2.20;;;3.50;88.00;;;;;;5092736;28;20232;-82
2022/02/07 15:01:20;;;;;;;5.30;2.00;;;3.50;88.00;;;;;;5099101;28;20201;-83
2022/02/07 15:04:27;;;;;;;7.73;2.03;;;3.50;88.00;;;;;;5105359;28;20228;-83
2022/02/07 15:07:06;;;;;;;4.60;1.50;;;3.60;85.90;;;;;;5106439;28;20220;-83
2022/02/07 15:09:33;;;;;;;6.60;1.83;;;3.60;87.60;;;;;;5097791;28;20279;-83
2022/02/07 15:16:12;;;;;;;6.30;1.87;;;3.50;88.00;;;;;;5083260;28;20531;-83
2022/02/07 15:18:39;;;;;;;4.40;1.90;;;3.50;88.00;;;;;;5096828;28;20212;-83
2022/02/07 15:21:08;;;;;;;5.53;1.90;;;3.50;88.00;;;;;;5091980;28;20205;-83
2022/02/07 15:23:37;;;;;;;5.07;1.80;;;3.40;88.00;;;;;;5090001;28;20232;-85
2022/02/07 15:26:05;;;;;;;5.53;1.97;;;3.40;88.00;;;;;;5105475;28;20196;-83
2022/02/07 15:29:28;;;;;;;3.37;1.80;;;3.30;87.90;;;;;;5107260;28;20229;-83
2022/02/07 15:32:20;;;;;;;6.10;2.13;;;3.10;89.00;;;;;;5102925;28;20185;-84
2022/02/07 15:38:33;;;;;;;7.07;2.00;;;3.10;90.10;;;;;;5097507;28;20211;-84
2022/02/07 15:41:07;;;;;;;8.43;1.97;;;3.00;90.40;;;;;;5071203;28;20240;-83
2022/02/07 15:43:35;;;;;;;10.50;2.00;;;2.80;90.70;;;;;;5087511;28;20232;-84
2022/02/07 15:46:04;;;;;;;7.67;2.20;;;2.80;90.90;;;;;;5093467;28;20207;-84
2022/02/07 15:48:39;;;;;;;6.67;2.10;;;2.70;91.20;;;;;;5111345;28;20316;-85
2022/02/07 15:51:10;;;;;;;7.67;1.90;;;2.70;91.50;;;;;;5095430;28;20203;-84
2022/02/07 15:53:43;;;;;;;9.73;2.00;;;2.70;91.50;;;;;;5100441;28;20294;-87
2022/02/07 15:56:10;;;;;;;8.33;1.80;;;2.70;91.50;;;;;;5104744;28;20678;-85
2022/02/07 15:58:37;;;;;;;5.33;1.77;;;2.60;91.50;;;;;;5105912;28;20255;-86
2022/02/07 16:01:12;;;;;;;10.27;1.77;;;2.60;91.50;;;;;;5099129;28;20189;-84
2022/02/07 16:03:39;;;;;;;4.97;1.80;;;2.70;91.30;;;;;;5079853;28;20221;-85
2022/02/07 16:06:05;;;;;;;5.47;2.00;;;2.60;91.50;;;;;;5095649;28;20197;-84
2022/02/07 16:08:33;;;;;;;5.07;2.07;;;2.70;91.30;;;;;;5103132;28;20311;-85
2022/02/07 16:11:02;;;;;;;6.63;2.10;;;2.60;91.60;;;;;;5109528;28;20200;-84
2022/02/07 16:13:34;;;;;;;4.50;1.90;;;2.60;91.70;;;;;;5107639;28;20224;-85
2022/02/07 16:16:03;;;;;;;7.40;2.03;;;2.60;91.50;;;;;;5105148;28;20235;-84
2022/02/07 16:18:30;;;;;;;5.13;1.90;;;2.60;91.30;;;;;;5102276;28;20282;-85
2022/02/07 16:20:59;;;;;;;3.80;1.70;;;2.70;91.20;;;;;;5103130;28;20735;-84
2022/02/07 16:23:25;;;;;;;5.97;2.03;;;2.80;91.00;;;;;;5092982;28;20232;-84
2022/02/07 16:25:52;;;;;;;7.40;2.17;;;2.80;90.60;;;;;;5096871;28;20207;-84
2022/02/07 16:28:22;;;;;;;8.07;2.13;;;2.70;90.50;;;;;;5107500;28;20264;-84
2022/02/07 16:30:56;;;;;;;5.73;1.87;;;2.60;90.70;;;;;;5109817;28;20205;-85
2022/02/07 16:33:24;;;;;;;5.33;1.83;;;2.70;90.40;;;;;;5104535;28;20250;-84